Wetterdaten: Woche 03.04.17 - 09.04.17 (KW14)
Datum Zeit Temp. I. Temp. A. Feuchte I. Feuchte A. Luftdruck Regen Wind Richtung Sonnenschein UV Solar Taupunkt Windchill Windben
03.04.2017 00:00 23,2 C 10,3 C 52 % 88 % 1021,2 hPa 0,0 l/m 2,4 km/h (1 Bft) N-NW 0,00 h 0,0 UV-I 0 W/m 8,5 C 10,3 C 5,3 km/h (1 Bft)
03.04.2017 01:00 23,0 C 9,4 C 52 % 90 % 1021,3 hPa 0,0 l/m 1,3 km/h (1 Bft) N-NW 0,00 h 0,0 UV-I 0 W/m 7,9 C 9,4 C 2,2 km/h (1 Bft)
03.04.2017 02:00 22,9 C 8,9 C 52 % 92 % 1021,3 hPa 0,0 l/m 0,0 km/h (0 Bft) N 0,00 h 0,0 UV-I 0 W/m 7,6 C 8,9 C 0,0 km/h (0 Bft)
03.04.2017 03:00 23,3 C 8,2 C 53 % 92 % 1021,3 hPa 0,0 l/m 0,0 km/h (0 Bft) N 0,00 h 0,0 UV-I 0 W/m 7,0 C 8,2 C 0,0 km/h (0 Bft)
03.04.2017 04:00 23,7 C 7,8 C 52 % 93 % 1021,5 hPa 0,0 l/m 1,2 km/h (1 Bft) N 0,00 h 0,0 UV-I 0 W/m 6,8 C 7,7 C 2,8 km/h (1 Bft)
03.04.2017 05:00 23,7 C 7,6 C 52 % 94 % 1021,7 hPa 0,0 l/m 0,0 km/h (0 Bft) N 0,00 h 0,0 UV-I 0 W/m 6,7 C 7,6 C 0,0 km/h (0 Bft)
03.04.2017 06:00 23,7 C 6,9 C 52 % 94 % 1022,0 hPa 0,0 l/m 0,0 km/h (0 Bft) N 0,00 h 0,0 UV-I 6 W/m 5,9 C 6,9 C 0,0 km/h (0 Bft)
03.04.2017 07:00 23,6 C 6,6 C 52 % 94 % 1022,3 hPa 0,0 l/m 0,0 km/h (0 Bft) N 0,00 h 0,0 UV-I 29 W/m 5,7 C 6,6 C 0,0 km/h (0 Bft)
03.04.2017 08:00 23,7 C 7,4 C 52 % 95 % 1022,9 hPa 0,0 l/m 0,1 km/h (0 Bft) N 0,02 h 0,6 UV-I 93 W/m 6,6 C 7,4 C 0,3 km/h (0 Bft)
03.04.2017 09:00 23,8 C 10,1 C 52 % 93 % 1023,1 hPa 0,0 l/m 0,7 km/h (0 Bft) N 0,12 h 0,7 UV-I 126 W/m 9,0 C 10,1 C 2,6 km/h (1 Bft)
03.04.2017 10:00 23,9 C 11,1 C 52 % 88 % 1023,3 hPa 0,0 l/m 2,1 km/h (1 Bft) N 0,40 h 1,0 UV-I 149 W/m 9,2 C 11,1 C 5,2 km/h (1 Bft)
03.04.2017 11:00 23,9 C 12,0 C 52 % 84 % 1023,4 hPa 0,0 l/m 3,7 km/h (1 Bft) N 0,87 h 1,6 UV-I 245 W/m 9,4 C 11,8 C 6,8 km/h (2 Bft)
03.04.2017 12:00 24,0 C 14,2 C 52 % 75 % 1023,2 hPa 0,0 l/m 3,4 km/h (1 Bft) N 0,85 h 2,1 UV-I 352 W/m 9,8 C 14,1 C 7,0 km/h (2 Bft)
03.04.2017 13:00 24,0 C 13,0 C 52 % 76 % 1023,2 hPa 0,0 l/m 2,9 km/h (1 Bft) N-NO 0,00 h 0,8 UV-I 89 W/m 8,9 C 12,8 C 6,6 km/h (2 Bft)
03.04.2017 14:00 24,0 C 12,6 C 52 % 77 % 1023,1 hPa 0,2 l/m 4,4 km/h (1 Bft) N-NO 0,00 h 0,8 UV-I 79 W/m 8,6 C 12,4 C 8,4 km/h (2 Bft)
03.04.2017 15:00 24,0 C 11,5 C 52 % 87 % 1023,0 hPa 0,2 l/m 5,9 km/h (2 Bft) N 0,13 h 0,8 UV-I 122 W/m 9,3 C 10,8 C 10,5 km/h (2 Bft)
03.04.2017 16:00 24,1 C 11,4 C 52 % 80 % 1023,0 hPa 0,0 l/m 6,2 km/h (2 Bft) N-NO 0,10 h 0,6 UV-I 87 W/m 8,0 C 10,4 C 12,0 km/h (2 Bft)
03.04.2017 17:00 24,1 C 11,2 C 52 % 78 % 1022,9 hPa 0,0 l/m 0,6 km/h (0 Bft) N-NO 0,00 h 0,5 UV-I 77 W/m 7,4 C 11,2 C 2,3 km/h (1 Bft)
03.04.2017 18:00 24,1 C 11,1 C 52 % 79 % 1022,8 hPa 0,0 l/m 1,7 km/h (1 Bft) N 0,00 h 0,0 UV-I 60 W/m 7,6 C 11,0 C 4,4 km/h (1 Bft)
03.04.2017 19:00 24,2 C 10,3 C 51 % 82 % 1023,0 hPa 0,0 l/m 2,2 km/h (1 Bft) N-NO 0,00 h 0,0 UV-I 18 W/m 7,3 C 10,1 C 4,4 km/h (1 Bft)
03.04.2017 20:00 24,3 C 9,7 C 52 % 83 % 1023,3 hPa 0,0 l/m 0,0 km/h (0 Bft) N 0,00 h 0,0 UV-I 0 W/m 7,0 C 9,7 C 0,0 km/h (0 Bft)
03.04.2017 21:00 24,4 C 9,1 C 52 % 85 % 1023,7 hPa 0,0 l/m 2,1 km/h (1 Bft) N 0,00 h 0,0 UV-I 0 W/m 6,7 C 8,9 C 5,0 km/h (1 Bft)
03.04.2017 22:00 24,2 C 8,4 C 52 % 86 % 1023,8 hPa 0,0 l/m 4,7 km/h (1 Bft) N 0,00 h 0,0 UV-I 0 W/m 6,2 C 7,9 C 9,0 km/h (2 Bft)
03.04.2017 23:00 24,0 C 7,6 C 52 % 88 % 1023,9 hPa 0,0 l/m 2,6 km/h (1 Bft) N 0,00 h 0,0 UV-I 0 W/m 5,7 C 7,5 C 5,7 km/h (1 Bft)
04.04.2017 00:00 23,9 C 6,8 C 51 % 89 % 1023,7 hPa 0,0 l/m 0,9 km/h (0 Bft) N 0,00 h 0,0 UV-I 0 W/m 5,1 C 6,8 C 3,0 km/h (1 Bft)
04.04.2017 01:00 23,8 C 6,1 C 51 % 90 % 1023,4 hPa 0,0 l/m 0,0 km/h (0 Bft) N 0,00 h 0,0 UV-I 0 W/m 4,6 C 6,1 C 0,0 km/h (0 Bft)
04.04.2017 02:00 23,7 C 5,3 C 52 % 89 % 1022,8 hPa 0,0 l/m 0,0 km/h (0 Bft) N 0,00 h 0,0 UV-I 0 W/m 3,7 C 5,3 C 0,0 km/h (0 Bft)
04.04.2017 03:00 23,7 C 4,2 C 52 % 90 % 1022,5 hPa 0,0 l/m 0,0 km/h (0 Bft) N 0,00 h 0,0 UV-I 0 W/m 2,8 C 4,2 C 0,0 km/h (0 Bft)
04.04.2017 04:00 23,8 C 3,4 C 52 % 91 % 1022,6 hPa 0,0 l/m 0,0 km/h (0 Bft) N 0,00 h 0,0 UV-I 0 W/m 2,1 C 3,4 C 0,0 km/h (0 Bft)
04.04.2017 05:00 23,6 C 3,5 C 53 % 93 % 1022,9 hPa 0,0 l/m 0,0 km/h (0 Bft) N 0,00 h 0,0 UV-I 0 W/m 2,5 C 3,5 C 0,0 km/h (0 Bft)
04.04.2017 06:00 23,6 C 4,0 C 53 % 94 % 1022,8 hPa 0,0 l/m 0,0 km/h (0 Bft) N 0,00 h 0,0 UV-I 0 W/m 3,1 C 4,0 C 0,0 km/h (0 Bft)
04.04.2017 07:00 23,7 C 4,8 C 53 % 95 % 1022,8 hPa 0,0 l/m 0,0 km/h (0 Bft) N 0,00 h 0,0 UV-I 17 W/m 4,1 C 4,8 C 0,1 km/h (0 Bft)
04.04.2017 08:00 23,7 C 5,6 C 52 % 95 % 1022,7 hPa 0,0 l/m 0,0 km/h (0 Bft) N 0,00 h 0,6 UV-I 63 W/m 4,9 C 5,6 C 0,0 km/h (0 Bft)
04.04.2017 09:00 23,8 C 6,4 C 52 % 92 % 1022,8 hPa 0,0 l/m 2,6 km/h (1 Bft) N 0,00 h 0,5 UV-I 56 W/m 5,2 C 6,3 C 6,8 km/h (2 Bft)
04.04.2017 10:00 23,8 C 6,7 C 52 % 90 % 1023,0 hPa 0,0 l/m 0,2 km/h (0 Bft) N 0,00 h 0,6 UV-I 67 W/m 5,2 C 6,7 C 0,7 km/h (0 Bft)
04.04.2017 11:00 23,8 C 7,2 C 53 % 90 % 1023,3 hPa 0,0 l/m 0,0 km/h (0 Bft) N 0,00 h 0,6 UV-I 80 W/m 5,6 C 7,2 C 0,1 km/h (0 Bft)
04.04.2017 12:00 23,8 C 7,3 C 53 % 89 % 1023,4 hPa 0,2 l/m 0,8 km/h (0 Bft) N-NO 0,52 h 1,1 UV-I 154 W/m 5,6 C 7,3 C 2,5 km/h (1 Bft)
04.04.2017 13:00 23,8 C 7,9 C 54 % 87 % 1023,4 hPa 0,0 l/m 1,2 km/h (1 Bft) N-NO 1,00 h 1,7 UV-I 251 W/m 5,8 C 7,9 C 3,5 km/h (1 Bft)
04.04.2017 14:00 24,1 C 8,8 C 54 % 85 % 1023,3 hPa 0,0 l/m 0,3 km/h (0 Bft) N-NO 1,00 h 1,8 UV-I 322 W/m 6,4 C 8,8 C 1,2 km/h (1 Bft)
04.04.2017 15:00 24,2 C 10,6 C 54 % 78 % 1023,0 hPa 0,0 l/m 3,4 km/h (1 Bft) N 0,95 h 2,2 UV-I 487 W/m 6,9 C 10,2 C 6,8 km/h (2 Bft)
04.04.2017 16:00 24,2 C 11,3 C 54 % 72 % 1022,7 hPa 0,0 l/m 5,8 km/h (2 Bft) N 1,00 h 1,6 UV-I 484 W/m 6,3 C 10,3 C 10,8 km/h (2 Bft)
04.04.2017 17:00 24,2 C 10,6 C 54 % 73 % 1022,7 hPa 0,0 l/m 6,4 km/h (2 Bft) N 0,78 h 0,9 UV-I 282 W/m 5,9 C 9,4 C 11,0 km/h (2 Bft)
04.04.2017 18:00 24,3 C 9,6 C 53 % 74 % 1022,8 hPa 0,0 l/m 4,1 km/h (1 Bft) N 0,35 h 0,6 UV-I 119 W/m 5,2 C 9,1 C 7,1 km/h (2 Bft)
04.04.2017 19:00 24,2 C 7,9 C 53 % 82 % 1022,9 hPa 0,0 l/m 1,2 km/h (1 Bft) N-NO 0,00 h 0,0 UV-I 22 W/m 5,0 C 7,9 C 3,2 km/h (1 Bft)
04.04.2017 20:00 24,3 C 6,6 C 53 % 87 % 1023,3 hPa 0,0 l/m 0,3 km/h (0 Bft) N 0,00 h 0,0 UV-I 0 W/m 4,5 C 6,6 C 1,1 km/h (1 Bft)
04.04.2017 21:00 24,5 C 5,7 C 54 % 89 % 1023,9 hPa 0,0 l/m 0,0 km/h (0 Bft) N 0,00 h 0,0 UV-I 0 W/m 4,0 C 5,7 C 0,0 km/h (0 Bft)
04.04.2017 22:00 24,4 C 4,8 C 54 % 90 % 1024,1 hPa 0,0 l/m 0,0 km/h (0 Bft) N 0,00 h 0,0 UV-I 0 W/m 3,3 C 4,8 C 0,0 km/h (0 Bft)
04.04.2017 23:00 24,2 C 3,7 C 53 % 90 % 1023,8 hPa 0,0 l/m 0,0 km/h (0 Bft) N 0,00 h 0,0 UV-I 0 W/m 2,2 C 3,7 C 0,0 km/h (0 Bft)
05.04.2017 00:00 24,1 C 2,8 C 53 % 91 % 1023,6 hPa 0,0 l/m 0,0 km/h (0 Bft) N 0,00 h 0,0 UV-I 0 W/m 1,5 C 2,8 C 0,0 km/h (0 Bft)
05.04.2017 01:00 24,0 C 1,8 C 53 % 91 % 1023,4 hPa 0,0 l/m 0,0 km/h (0 Bft) N 0,00 h 0,0 UV-I 0 W/m 0,5 C 1,8 C 0,0 km/h (0 Bft)
05.04.2017 02:00 23,9 C 0,9 C 53 % 92 % 1023,5 hPa 0,0 l/m 0,0 km/h (0 Bft) N 0,00 h 0,0 UV-I 0 W/m -0,3 C 0,9 C 0,0 km/h (0 Bft)
05.04.2017 03:00 23,9 C 0,3 C 53 % 92 % 1023,4 hPa 0,0 l/m 0,0 km/h (0 Bft) N 0,00 h 0,0 UV-I 0 W/m -0,8 C 0,3 C 0,0 km/h (0 Bft)
05.04.2017 08:00 23,7 C 2,6 C 52 % 96 % 1023,3 hPa 0,0 l/m 0,0 km/h (0 Bft) N 0,00 h 0,6 UV-I 115 W/m 2,1 C 2,6 C 0,0 km/h (0 Bft)
05.04.2017 09:00 23,8 C 4,2 C 52 % 95 % 1023,4 hPa 0,0 l/m 0,1 km/h (0 Bft) N-NO 0,65 h 1,0 UV-I 242 W/m 3,6 C 4,2 C 0,6 km/h (0 Bft)
05.04.2017 10:00 23,8 C 7,6 C 51 % 84 % 1023,4 hPa 0,0 l/m 1,3 km/h (1 Bft) N-NW 0,98 h 2,0 UV-I 418 W/m 5,1 C 7,6 C 3,7 km/h (1 Bft)
05.04.2017 11:00 23,9 C 10,8 C 50 % 70 % 1023,0 hPa 0,0 l/m 3,3 km/h (1 Bft) W-NW 1,00 h 3,1 UV-I 659 W/m 5,4 C 10,7 C 7,5 km/h (2 Bft)
05.04.2017 12:00 23,9 C 12,9 C 50 % 61 % 1022,5 hPa 0,0 l/m 4,2 km/h (1 Bft) W-NW 1,00 h 3,8 UV-I 723 W/m 5,5 C 12,6 C 8,7 km/h (2 Bft)
05.04.2017 13:00 24,0 C 13,8 C 50 % 59 % 1021,8 hPa 0,0 l/m 4,6 km/h (1 Bft) NW 1,00 h 3,3 UV-I 523 W/m 5,9 C 13,3 C 10,9 km/h (2 Bft)
05.04.2017 14:00 24,2 C 14,2 C 50 % 58 % 1021,3 hPa 0,0 l/m 7,7 km/h (2 Bft) N 1,00 h 3,2 UV-I 551 W/m 6,0 C 12,9 C 13,7 km/h (3 Bft)
05.04.2017 15:00 24,2 C 13,1 C 50 % 59 % 1020,8 hPa 0,0 l/m 7,1 km/h (2 Bft) N 1,00 h 1,6 UV-I 251 W/m 5,3 C 12,0 C 12,4 km/h (3 Bft)
05.04.2017 16:00 23,9 C 12,7 C 49 % 59 % 1020,3 hPa 0,0 l/m 7,9 km/h (2 Bft) W-NW 0,82 h 1,1 UV-I 176 W/m 4,9 C 11,2 C 13,1 km/h (3 Bft)
05.04.2017 17:00 23,8 C 12,2 C 49 % 61 % 1019,7 hPa 0,0 l/m 4,4 km/h (1 Bft) NW 0,17 h 0,7 UV-I 104 W/m 5,0 C 11,8 C 9,3 km/h (2 Bft)
05.04.2017 18:00 24,2 C 11,5 C 50 % 64 % 1019,6 hPa 0,0 l/m 6,9 km/h (2 Bft) W-NW 0,00 h 0,0 UV-I 30 W/m 5,0 C 10,3 C 12,6 km/h (3 Bft)
05.04.2017 19:00 24,3 C 10,7 C 51 % 67 % 1019,8 hPa 0,0 l/m 6,1 km/h (2 Bft) W-NW 0,00 h 0,0 UV-I 6 W/m 4,9 C 9,4 C 11,1 km/h (2 Bft)
05.04.2017 20:00 24,4 C 10,0 C 51 % 72 % 1019,8 hPa 0,0 l/m 0,1 km/h (0 Bft) W-NW 0,00 h 0,0 UV-I 0 W/m 5,1 C 10,0 C 0,7 km/h (0 Bft)
05.04.2017 21:00 24,4 C 9,2 C 51 % 79 % 1020,1 hPa 0,0 l/m 0,4 km/h (0 Bft) N 0,00 h 0,0 UV-I 0 W/m 5,8 C 9,2 C 1,5 km/h (1 Bft)
05.04.2017 22:00 24,1 C 8,4 C 51 % 82 % 1020,1 hPa 0,0 l/m 6,7 km/h (2 Bft) N 0,00 h 0,0 UV-I 0 W/m 5,5 C 6,5 C 11,5 km/h (2 Bft)
05.04.2017 23:00 24,0 C 7,2 C 51 % 82 % 1020,1 hPa 0,0 l/m 3,9 km/h (1 Bft) N 0,00 h 0,0 UV-I 0 W/m 4,3 C 6,7 C 7,0 km/h (2 Bft)
06.04.2017 00:00 23,8 C 6,9 C 52 % 81 % 1020,1 hPa 0,0 l/m 5,4 km/h (1 Bft) NW 0,00 h 0,0 UV-I 0 W/m 3,8 C 6,2 C 12,0 km/h (2 Bft)
06.04.2017 01:00 23,7 C 6,5 C 52 % 76 % 1020,4 hPa 0,0 l/m 7,8 km/h (2 Bft) N-NW 0,00 h 0,0 UV-I 0 W/m 2,6 C 4,7 C 13,7 km/h (3 Bft)
06.04.2017 02:00 23,7 C 6,0 C 52 % 75 % 1020,3 hPa 0,0 l/m 7,8 km/h (2 Bft) N-NW 0,00 h 0,0 UV-I 0 W/m 1,9 C 4,1 C 13,3 km/h (3 Bft)
06.04.2017 03:00 23,7 C 4,9 C 52 % 76 % 1020,2 hPa 0,0 l/m 9,1 km/h (2 Bft) NW 0,00 h 0,0 UV-I 0 W/m 1,0 C 2,5 C 14,9 km/h (3 Bft)
06.04.2017 04:00 23,6 C 3,8 C 52 % 79 % 1020,2 hPa 0,0 l/m 7,3 km/h (2 Bft) W-NW 0,00 h 0,0 UV-I 0 W/m 0,5 C 2,2 C 12,1 km/h (2 Bft)
06.04.2017 05:00 23,5 C 3,0 C 52 % 80 % 1020,4 hPa 0,0 l/m 6,1 km/h (2 Bft) W-NW 0,00 h 0,0 UV-I 0 W/m -0,1 C 2,0 C 10,7 km/h (2 Bft)
06.04.2017 06:00 23,4 C 2,9 C 52 % 81 % 1020,7 hPa 0,0 l/m 6,5 km/h (2 Bft) W-NW 0,00 h 0,0 UV-I 5 W/m -0,0 C 1,8 C 11,1 km/h (2 Bft)
06.04.2017 07:00 23,7 C 3,9 C 52 % 78 % 1021,2 hPa 0,0 l/m 6,3 km/h (2 Bft) W-NW 0,00 h 0,0 UV-I 25 W/m 0,4 C 2,7 C 11,2 km/h (2 Bft)
06.04.2017 08:00 23,7 C 4,1 C 51 % 81 % 1021,7 hPa 0,0 l/m 7,3 km/h (2 Bft) NW 0,07 h 0,6 UV-I 76 W/m 1,2 C 2,3 C 12,5 km/h (3 Bft)
06.04.2017 09:00 23,8 C 4,3 C 51 % 85 % 1022,2 hPa 0,0 l/m 9,9 km/h (2 Bft) N-NW 0,28 h 0,8 UV-I 148 W/m 2,0 C 1,4 C 16,0 km/h (3 Bft)
06.04.2017 10:00 23,9 C 5,6 C 50 % 76 % 1022,6 hPa 0,0 l/m 8,8 km/h (2 Bft) NW 0,28 h 1,2 UV-I 156 W/m 1,8 C 3,6 C 15,8 km/h (3 Bft)
06.04.2017 11:00 23,7 C 6,6 C 50 % 72 % 1023,4 hPa 0,0 l/m 8,0 km/h (2 Bft) N 0,90 h 2,2 UV-I 382 W/m 1,9 C 4,7 C 13,9 km/h (3 Bft)
06.04.2017 12:00 23,8 C 7,9 C 50 % 59 % 1023,5 hPa 0,0 l/m 9,7 km/h (2 Bft) NW 1,00 h 2,7 UV-I 402 W/m 0,4 C 5,4 C 15,7 km/h (3 Bft)
06.04.2017 13:00 24,0 C 9,1 C 51 % 52 % 1023,5 hPa 0,0 l/m 10,0 km/h (2 Bft) NW 0,97 h 3,0 UV-I 433 W/m -0,2 C 6,5 C 15,6 km/h (3 Bft)
06.04.2017 14:00 24,1 C 9,9 C 51 % 48 % 1023,2 hPa 0,0 l/m 9,6 km/h (2 Bft) NW 0,78 h 3,1 UV-I 484 W/m -0,7 C 7,8 C 15,9 km/h (3 Bft)
06.04.2017 15:00 24,1 C 11,4 C 49 % 42 % 1022,9 hPa 0,0 l/m 10,3 km/h (2 Bft) NW 0,92 h 2,9 UV-I 652 W/m -1,1 C 8,9 C 16,9 km/h (3 Bft)
06.04.2017 16:00 24,0 C 11,3 C 48 % 42 % 1022,6 hPa 0,0 l/m 8,7 km/h (2 Bft) NW 0,80 h 1,8 UV-I 410 W/m -1,0 C 9,6 C 15,0 km/h (3 Bft)
06.04.2017 17:00 24,2 C 11,0 C 49 % 42 % 1022,6 hPa 0,0 l/m 10,1 km/h (2 Bft) W-NW 0,80 h 1,1 UV-I 287 W/m -1,4 C 8,5 C 15,8 km/h (3 Bft)
06.04.2017 18:00 24,2 C 9,6 C 50 % 47 % 1022,5 hPa 0,0 l/m 8,3 km/h (2 Bft) W-NW 0,23 h 0,6 UV-I 85 W/m -1,3 C 7,9 C 12,9 km/h (3 Bft)
06.04.2017 19:00 24,2 C 8,4 C 49 % 53 % 1022,7 hPa 0,0 l/m 2,8 km/h (1 Bft) W-NW 0,00 h 0,0 UV-I 13 W/m -0,6 C 8,3 C 6,3 km/h (2 Bft)
06.04.2017 20:00 24,3 C 7,7 C 50 % 59 % 1023,1 hPa 0,0 l/m 0,6 km/h (0 Bft) W-NW 0,00 h 0,0 UV-I 0 W/m 0,2 C 7,7 C 2,3 km/h (1 Bft)
06.04.2017 21:00 24,6 C 6,4 C 51 % 67 % 1023,4 hPa 0,0 l/m 0,8 km/h (0 Bft) NW 0,00 h 0,0 UV-I 0 W/m 0,6 C 6,4 C 2,6 km/h (1 Bft)
06.04.2017 22:00 24,4 C 5,6 C 51 % 71 % 1023,8 hPa 0,0 l/m 0,2 km/h (0 Bft) NW 0,00 h 0,0 UV-I 0 W/m 0,8 C 5,6 C 1,2 km/h (1 Bft)
06.04.2017 23:00 24,1 C 5,7 C 51 % 69 % 1023,8 hPa 0,0 l/m 0,0 km/h (0 Bft) N 0,00 h 0,0 UV-I 0 W/m 0,5 C 5,7 C 0,1 km/h (0 Bft)
07.04.2017 00:00 23,9 C 5,7 C 51 % 70 % 1023,4 hPa 0,0 l/m 0,0 km/h (0 Bft) N 0,00 h 0,0 UV-I 0 W/m 0,7 C 5,7 C 0,1 km/h (0 Bft)
07.04.2017 01:00 23,8 C 5,6 C 51 % 71 % 1022,9 hPa 0,0 l/m 0,1 km/h (0 Bft) W 0,00 h 0,0 UV-I 0 W/m 0,7 C 5,6 C 0,7 km/h (0 Bft)
07.04.2017 02:00 23,7 C 5,7 C 51 % 71 % 1022,4 hPa 0,0 l/m 2,2 km/h (1 Bft) W 0,00 h 0,0 UV-I 0 W/m 0,9 C 5,7 C 5,7 km/h (1 Bft)
07.04.2017 03:00 23,7 C 5,7 C 52 % 72 % 1022,0 hPa 0,0 l/m 1,6 km/h (1 Bft) W-SW 0,00 h 0,0 UV-I 0 W/m 1,1 C 5,7 C 4,1 km/h (1 Bft)
07.04.2017 04:00 23,7 C 5,6 C 52 % 74 % 1021,8 hPa 0,0 l/m 2,3 km/h (1 Bft) W 0,00 h 0,0 UV-I 0 W/m 1,3 C 5,6 C 5,5 km/h (1 Bft)
07.04.2017 05:00 23,6 C 5,6 C 52 % 75 % 1021,6 hPa 0,0 l/m 1,3 km/h (1 Bft) W 0,00 h 0,0 UV-I 0 W/m 1,6 C 5,6 C 3,9 km/h (1 Bft)
07.04.2017 06:00 23,6 C 5,6 C 52 % 77 % 1021,3 hPa 0,0 l/m 2,0 km/h (1 Bft) W 0,00 h 0,0 UV-I 10 W/m 1,9 C 5,6 C 5,1 km/h (1 Bft)
07.04.2017 07:00 23,6 C 5,7 C 52 % 79 % 1021,4 hPa 0,0 l/m 2,7 km/h (1 Bft) W 0,00 h 0,0 UV-I 19 W/m 2,2 C 5,6 C 6,6 km/h (2 Bft)
07.04.2017 08:00 23,8 C 5,9 C 52 % 79 % 1021,5 hPa 0,0 l/m 2,5 km/h (1 Bft) W-NW 0,00 h 0,0 UV-I 24 W/m 2,5 C 5,8 C 5,9 km/h (2 Bft)
07.04.2017 09:00 23,8 C 6,3 C 53 % 78 % 1021,3 hPa 0,0 l/m 6,4 km/h (2 Bft) W-NW 0,00 h 0,7 UV-I 76 W/m 2,7 C 4,9 C 12,4 km/h (3 Bft)
07.04.2017 10:00 23,8 C 7,2 C 52 % 74 % 1021,4 hPa 0,0 l/m 10,5 km/h (2 Bft) W-NW 0,63 h 1,4 UV-I 165 W/m 2,8 C 4,2 C 16,9 km/h (3 Bft)
07.04.2017 11:00 23,7 C 8,2 C 51 % 71 % 1021,4 hPa 0,0 l/m 12,4 km/h (3 Bft) NW 0,92 h 2,3 UV-I 261 W/m 3,2 C 4,3 C 19,0 km/h (3 Bft)
07.04.2017 12:00 23,7 C 8,2 C 51 % 71 % 1021,3 hPa 0,0 l/m 10,1 km/h (2 Bft) W 0,97 h 2,1 UV-I 212 W/m 3,2 C 5,4 C 16,4 km/h (3 Bft)
07.04.2017 13:00 23,6 C 8,4 C 48 % 70 % 1021,4 hPa 0,0 l/m 12,6 km/h (3 Bft) W 1,00 h 2,5 UV-I 288 W/m 3,3 C 4,5 C 19,4 km/h (3 Bft)
07.04.2017 14:00 23,4 C 8,4 C 47 % 71 % 1021,1 hPa 0,0 l/m 11,6 km/h (2 Bft) W 0,73 h 2,0 UV-I 174 W/m 3,4 C 5,0 C 18,3 km/h (3 Bft)
07.04.2017 15:00 23,0 C 10,1 C 44 % 67 % 1020,6 hPa 0,0 l/m 10,5 km/h (2 Bft) W 0,97 h 2,2 UV-I 357 W/m 4,2 C 7,5 C 17,0 km/h (3 Bft)
07.04.2017 16:00 23,4 C 10,4 C 44 % 66 % 1020,2 hPa 0,0 l/m 10,7 km/h (2 Bft) W-NW 0,55 h 1,4 UV-I 206 W/m 4,3 C 7,7 C 17,8 km/h (3 Bft)
07.04.2017 17:00 23,8 C 11,0 C 46 % 64 % 1020,1 hPa 0,0 l/m 9,3 km/h (2 Bft) W-NW 0,62 h 0,9 UV-I 185 W/m 4,5 C 9,0 C 15,3 km/h (3 Bft)
07.04.2017 18:00 23,9 C 10,3 C 46 % 67 % 1020,4 hPa 0,0 l/m 9,0 km/h (2 Bft) W-NW 0,00 h 0,5 UV-I 33 W/m 4,5 C 8,4 C 14,6 km/h (3 Bft)
07.04.2017 19:00 24,0 C 9,7 C 48 % 70 % 1021,1 hPa 0,0 l/m 2,8 km/h (1 Bft) W 0,00 h 0,0 UV-I 7 W/m 4,5 C 9,4 C 6,5 km/h (2 Bft)
07.04.2017 20:00 24,0 C 9,5 C 48 % 71 % 1021,8 hPa 0,0 l/m 1,1 km/h (1 Bft) W 0,00 h 0,0 UV-I 0 W/m 4,5 C 9,5 C 3,5 km/h (1 Bft)
07.04.2017 21:00 24,3 C 9,3 C 49 % 73 % 1022,2 hPa 0,0 l/m 1,0 km/h (0 Bft) W 0,00 h 0,0 UV-I 0 W/m 4,7 C 9,3 C 3,4 km/h (1 Bft)
07.04.2017 22:00 24,3 C 9,0 C 49 % 75 % 1022,6 hPa 0,0 l/m 0,0 km/h (0 Bft) N 0,00 h 0,0 UV-I 0 W/m 4,8 C 9,0 C 0,0 km/h (0 Bft)
07.04.2017 23:00 24,1 C 9,0 C 49 % 76 % 1022,7 hPa 0,0 l/m 1,3 km/h (1 Bft) W-NW 0,00 h 0,0 UV-I 0 W/m 5,1 C 8,8 C 2,8 km/h (1 Bft)
08.04.2017 00:00 23,8 C 9,2 C 49 % 79 % 1022,6 hPa 0,0 l/m 9,6 km/h (2 Bft) W-NW 0,00 h 0,0 UV-I 0 W/m 5,8 C 6,7 C 14,8 km/h (3 Bft)
08.04.2017 01:00 23,7 C 9,1 C 50 % 82 % 1022,6 hPa 0,0 l/m 4,0 km/h (1 Bft) W-NW 0,00 h 0,0 UV-I 0 W/m 6,1 C 8,6 C 7,6 km/h (2 Bft)
08.04.2017 02:00 23,6 C 9,0 C 50 % 83 % 1022,5 hPa 0,0 l/m 0,4 km/h (0 Bft) W-SW 0,00 h 0,0 UV-I 0 W/m 6,3 C 9,0 C 1,5 km/h (1 Bft)
08.04.2017 03:00 23,5 C 8,9 C 50 % 84 % 1022,4 hPa 0,0 l/m 0,0 km/h (0 Bft) SW 0,00 h 0,0 UV-I 0 W/m 6,3 C 8,9 C 0,2 km/h (0 Bft)
08.04.2017 04:00 23,5 C 8,7 C 50 % 84 % 1022,4 hPa 0,0 l/m 0,0 km/h (0 Bft) N 0,00 h 0,0 UV-I 0 W/m 6,2 C 8,7 C 0,0 km/h (0 Bft)
08.04.2017 05:00 23,6 C 8,7 C 51 % 85 % 1022,6 hPa 0,0 l/m 0,3 km/h (0 Bft) NW 0,00 h 0,0 UV-I 0 W/m 6,4 C 8,7 C 1,4 km/h (1 Bft)
08.04.2017 06:00 23,6 C 8,7 C 50 % 86 % 1023,0 hPa 0,0 l/m 0,0 km/h (0 Bft) N 0,00 h 0,0 UV-I 8 W/m 6,4 C 8,7 C 0,2 km/h (0 Bft)
08.04.2017 07:00 23,5 C 8,7 C 50 % 86 % 1023,7 hPa 0,0 l/m 0,1 km/h (0 Bft) W-SW 0,00 h 0,0 UV-I 28 W/m 6,4 C 8,7 C 1,0 km/h (0 Bft)
08.04.2017 08:00 23,6 C 8,9 C 50 % 85 % 1024,1 hPa 0,0 l/m 0,5 km/h (0 Bft) W-NW 0,08 h 0,7 UV-I 90 W/m 6,6 C 8,9 C 1,5 km/h (1 Bft)
08.04.2017 09:00 23,8 C 10,2 C 50 % 80 % 1024,3 hPa 0,0 l/m 1,3 km/h (1 Bft) W-NW 0,75 h 1,1 UV-I 186 W/m 6,9 C 10,2 C 3,2 km/h (1 Bft)
08.04.2017 10:00 23,7 C 11,1 C 49 % 74 % 1024,7 hPa 0,0 l/m 1,5 km/h (1 Bft) N 0,93 h 1,5 UV-I 219 W/m 6,6 C 11,1 C 3,1 km/h (1 Bft)
08.04.2017 11:00 23,4 C 12,1 C 47 % 71 % 1024,9 hPa 0,0 l/m 0,6 km/h (0 Bft) NW 1,00 h 2,6 UV-I 364 W/m 7,0 C 12,1 C 1,4 km/h (1 Bft)
08.04.2017 12:00 23,8 C 13,6 C 48 % 66 % 1024,5 hPa 0,0 l/m 0,4 km/h (0 Bft) W-NW 1,00 h 3,7 UV-I 522 W/m 7,3 C 13,6 C 1,5 km/h (1 Bft)
08.04.2017 13:00 24,1 C 14,4 C 49 % 63 % 1023,8 hPa 0,0 l/m 1,2 km/h (1 Bft) S 1,00 h 3,8 UV-I 535 W/m 7,3 C 14,4 C 2,7 km/h (1 Bft)
08.04.2017 14:00 24,1 C 15,6 C 49 % 58 % 1023,3 hPa 0,0 l/m 1,2 km/h (1 Bft) W-SW 1,00 h 3,5 UV-I 533 W/m 7,5 C 15,6 C 3,1 km/h (1 Bft)
08.04.2017 15:00 23,7 C 16,6 C 47 % 56 % 1022,7 hPa 0,0 l/m 1,8 km/h (1 Bft) W-SW 1,00 h 2,9 UV-I 504 W/m 7,7 C 16,5 C 4,3 km/h (1 Bft)
08.04.2017 16:00 23,6 C 16,0 C 46 % 57 % 1022,3 hPa 0,0 l/m 0,7 km/h (0 Bft) W 0,92 h 1,5 UV-I 253 W/m 7,4 C 16,0 C 2,1 km/h (1 Bft)
08.04.2017 17:00 23,7 C 15,4 C 47 % 59 % 1022,2 hPa 0,0 l/m 0,1 km/h (0 Bft) SO 0,00 h 0,6 UV-I 113 W/m 7,4 C 15,4 C 0,3 km/h (0 Bft)
08.04.2017 18:00 23,9 C 15,3 C 47 % 59 % 1022,1 hPa 0,0 l/m 0,0 km/h (0 Bft) N 0,13 h 0,5 UV-I 89 W/m 7,2 C 15,3 C 0,1 km/h (0 Bft)
08.04.2017 19:00 24,1 C 14,4 C 48 % 63 % 1022,1 hPa 0,0 l/m 0,0 km/h (0 Bft) N 0,00 h 0,0 UV-I 19 W/m 7,3 C 14,4 C 0,0 km/h (0 Bft)
08.04.2017 20:00 24,2 C 12,9 C 49 % 72 % 1022,4 hPa 0,0 l/m 0,0 km/h (0 Bft) N 0,00 h 0,0 UV-I 0 W/m 8,0 C 12,9 C 0,0 km/h (0 Bft)
08.04.2017 21:00 24,3 C 11,2 C 49 % 80 % 1022,8 hPa 0,0 l/m 0,0 km/h (0 Bft) N 0,00 h 0,0 UV-I 0 W/m 7,8 C 11,2 C 0,0 km/h (0 Bft)
08.04.2017 22:00 24,4 C 10,7 C 50 % 81 % 1022,9 hPa 0,0 l/m 0,1 km/h (0 Bft) NO 0,00 h 0,0 UV-I 0 W/m 7,6 C 10,7 C 0,4 km/h (0 Bft)
08.04.2017 23:00 24,5 C 10,4 C 50 % 80 % 1023,0 hPa 0,0 l/m 1,4 km/h (1 Bft) O-NO 0,00 h 0,0 UV-I 0 W/m 7,1 C 10,4 C 4,9 km/h (1 Bft)
09.04.2017 00:00 24,2 C 10,0 C 50 % 80 % 1023,3 hPa 0,0 l/m 0,4 km/h (0 Bft) O-NO 0,00 h 0,0 UV-I 0 W/m 6,7 C 10,0 C 1,4 km/h (1 Bft)
09.04.2017 01:00 23,9 C 9,0 C 50 % 83 % 1023,4 hPa 0,0 l/m 0,0 km/h (0 Bft) N 0,00 h 0,0 UV-I 0 W/m 6,4 C 9,0 C 0,1 km/h (0 Bft)
09.04.2017 02:00 23,8 C 7,8 C 50 % 87 % 1023,4 hPa 0,0 l/m 0,0 km/h (0 Bft) N 0,00 h 0,0 UV-I 0 W/m 5,7 C 7,8 C 0,0 km/h (0 Bft)
09.04.2017 03:00 23,7 C 7,2 C 51 % 87 % 1023,5 hPa 0,0 l/m 0,0 km/h (0 Bft) N 0,00 h 0,0 UV-I 0 W/m 5,1 C 7,2 C 0,0 km/h (0 Bft)
09.04.2017 04:00 23,6 C 6,5 C 51 % 87 % 1023,6 hPa 0,0 l/m 0,0 km/h (0 Bft) N 0,00 h 0,0 UV-I 0 W/m 4,5 C 6,5 C 0,0 km/h (0 Bft)
09.04.2017 05:00 23,6 C 5,3 C 51 % 89 % 1023,6 hPa 0,0 l/m 0,0 km/h (0 Bft) N 0,00 h 0,0 UV-I 0 W/m 3,7 C 5,3 C 0,0 km/h (0 Bft)
09.04.2017 06:00 23,5 C 4,5 C 51 % 91 % 1023,9 hPa 0,0 l/m 0,0 km/h (0 Bft) N 0,00 h 0,0 UV-I 10 W/m 3,2 C 4,5 C 0,0 km/h (0 Bft)
09.04.2017 07:00 23,5 C 4,4 C 51 % 92 % 1024,3 hPa 0,0 l/m 0,0 km/h (0 Bft) N 0,00 h 0,5 UV-I 61 W/m 3,2 C 4,4 C 0,0 km/h (0 Bft)
09.04.2017 08:00 23,7 C 7,5 C 51 % 89 % 1024,6 hPa 0,0 l/m 0,0 km/h (0 Bft) N 0,90 h 0,8 UV-I 246 W/m 5,7 C 7,5 C 0,0 km/h (0 Bft)
09.04.2017 09:00 23,8 C 11,6 C 50 % 79 % 1024,8 hPa 0,0 l/m 0,5 km/h (0 Bft) W-SW 1,00 h 1,5 UV-I 409 W/m 8,0 C 11,6 C 1,0 km/h (0 Bft)
09.04.2017 10:00 24,1 C 14,5 C 49 % 67 % 1024,7 hPa 0,0 l/m 4,2 km/h (1 Bft) SW 1,00 h 2,7 UV-I 578 W/m 8,4 C 14,3 C 8,6 km/h (2 Bft)
09.04.2017 11:00 23,9 C 16,5 C 47 % 62 % 1024,6 hPa 0,0 l/m 2,4 km/h (1 Bft) W-SW 1,00 h 3,8 UV-I 705 W/m 9,1 C 16,5 C 5,7 km/h (1 Bft)
09.04.2017 12:00 23,7 C 17,4 C 44 % 55 % 1024,3 hPa 0,0 l/m 4,3 km/h (1 Bft) W-SW 1,00 h 4,3 UV-I 680 W/m 8,3 C 17,3 C 9,3 km/h (2 Bft)
09.04.2017 13:00 23,1 C 18,7 C 41 % 48 % 1023,9 hPa 0,0 l/m 5,2 km/h (1 Bft) W 1,00 h 4,6 UV-I 766 W/m 7,4 C 18,4 C 10,0 km/h (2 Bft)
09.04.2017 14:00 23,3 C 19,2 C 41 % 45 % 1023,5 hPa 0,0 l/m 3,9 km/h (1 Bft) SW 1,00 h 4,2 UV-I 711 W/m 7,0 C 19,0 C 8,1 km/h (2 Bft)
09.04.2017 15:00 23,7 C 19,8 C 43 % 46 % 1022,9 hPa 0,0 l/m 2,3 km/h (1 Bft) S 1,00 h 3,2 UV-I 614 W/m 7,9 C 19,8 C 5,8 km/h (2 Bft)
09.04.2017 16:00 24,0 C 20,1 C 43 % 45 % 1022,3 hPa 0,0 l/m 2,1 km/h (1 Bft) S 1,00 h 2,1 UV-I 473 W/m 8,0 C 20,1 C 5,1 km/h (1 Bft)
09.04.2017 17:00 23,7 C 19,9 C 42 % 45 % 1021,8 hPa 0,0 l/m 1,3 km/h (1 Bft) S 1,00 h 1,1 UV-I 322 W/m 7,5 C 19,9 C 3,8 km/h (1 Bft)
09.04.2017 18:00 23,9 C 19,1 C 43 % 47 % 1021,5 hPa 0,0 l/m 1,5 km/h (1 Bft) S 0,35 h 0,6 UV-I 119 W/m 7,6 C 19,1 C 3,3 km/h (1 Bft)
09.04.2017 19:00 24,1 C 17,9 C 45 % 52 % 1021,2 hPa 0,0 l/m 0,0 km/h (0 Bft) N 0,00 h 0,0 UV-I 23 W/m 7,8 C 17,9 C 0,0 km/h (0 Bft)
09.04.2017 20:00 24,1 C 15,3 C 45 % 64 % 1021,3 hPa 0,0 l/m 0,0 km/h (0 Bft) N 0,00 h 0,0 UV-I 0 W/m 8,4 C 15,3 C 0,0 km/h (0 Bft)
09.04.2017 21:00 24,3 C 12,5 C 47 % 74 % 1021,5 hPa 0,0 l/m 0,0 km/h (0 Bft) N 0,00 h 0,0 UV-I 0 W/m 8,0 C 12,5 C 0,0 km/h (0 Bft)
09.04.2017 22:00 24,4 C 10,5 C 48 % 82 % 1021,4 hPa 0,0 l/m 0,4 km/h (0 Bft) O 0,00 h 0,0 UV-I 0 W/m 7,5 C 10,5 C 1,2 km/h (1 Bft)
09.04.2017 23:00 24,2 C 9,7 C 48 % 81 % 1021,3 hPa 0,0 l/m 0,0 km/h (0 Bft) N 0,00 h 0,0 UV-I 0 W/m 6,6 C 9,7 C 0,0 km/h (0 Bft)
Min-Datum _ 03.04.17 05.04.17 09.04.17 06.04.17 05.04.17 - 03.04.17 - - - - 06.04.17 06.04.17 03.04.17
_ Min-Zeit 03:06 03:20 13:30 15:33 17:34 - 00:00 - - - - 15:53 04:53 00:00
Minimum _ 22,8 C 0,2 C 38 % 37 % 1019,5 hPa - 0,0 km/h (0 Bft) - - - - -2,2 C -4,2 C 0,0 km/h (0 Bft)
Max-Datum _ 04.04.17 09.04.17 04.04.17 05.04.17 08.04.17 03.04.17 05.04.17 - 03.04.17 09.04.17 06.04.17 03.04.17 09.04.17 07.04.17
_ Max-Zeit 21:42 16:02 13:28 08:42 11:05 14:59 22:34 - 12:19 12:29 12:19 12:10 16:02 11:15
Maximum _ 24,6 C 20,6 C 55 % 97 % 1025,0 hPa 0,2 l/m 20,9 km/h
N (4 Bft)
- 0,03 h 4,9 UV-I 1044 W/m 11,3 C 20,6 C 30,6 km/h
NW (5 Bft)
Durchschnitt _ 23,9 C 9,1 C 50 % 76 % 1022,5 hPa #0,6 l/m 2,9 km/h (1 Bft) W-NW #47:11 h 1,7 UV-I 237 W/m 4,8 C 8,6 C 5,5 km/h (1 Bft)